Time;durP1;ratioP1;P1;durP2;ratioP2;P2;SDS_P1;SDS_P2;PMS_P1;PMS_P2;Temp;Humidity;BMP_temperature;BMP_pressure;BME280_temperature;BME280_humidity;BME280_pressure;Samples;Min_cycle;Max_cycle;Signal;HPM_P1;HPM_P2
2023/09/05 00:01:10;;;;;;;0.10;0.10;;;;;;;;;;5114014;28;20060;-41
2023/09/05 00:03:35;;;;;;;0.10;0.10;;;;;;;;;;5116650;28;20491;-43
2023/09/05 00:06:05;;;;;;;0.10;0.10;;;;;;;;;;5116900;28;20054;-41
2023/09/05 00:08:31;;;;;;;0.10;0.10;;;;;;;;;;5116627;28;20799;-43
2023/09/05 00:10:59;;;;;;;0.10;0.10;;;;;;;;;;5116536;28;20587;-42
2023/09/05 00:13:26;;;;;;;0.10;0.10;;;;;;;;;;5116961;28;20396;-41
2023/09/05 00:15:53;;;;;;;0.10;0.10;;;;;;;;;;5116428;28;20099;-42
2023/09/05 00:18:18;;;;;;;0.28;0.28;;;;;;;;;;5097868;28;20046;-42
2023/09/05 00:20:45;;;;;;;0.10;0.10;;;;;;;;;;5116645;28;20392;-42
2023/09/05 00:23:11;;;;;;;0.20;0.20;;;;;;;;;;5116856;28;20344;-43
2023/09/05 00:25:36;;;;;;;0.10;0.10;;;;;;;;;;5116585;28;20225;-41
2023/09/05 00:28:03;;;;;;;0.10;0.10;;;;;;;;;;5109697;28;20035;-42
2023/09/05 00:30:29;;;;;;;0.20;0.20;;;;;;;;;;5107131;28;20499;-41
2023/09/05 00:32:54;;;;;;;0.10;0.10;;;;;;;;;;5116559;28;20051;-42
2023/09/05 00:35:20;;;;;;;0.20;0.20;;;;;;;;;;5115385;28;20057;-42
2023/09/05 00:37:47;;;;;;;0.10;0.10;;;;;;;;;;5115852;28;20043;-42
2023/09/05 00:40:14;;;;;;;0.10;0.10;;;;;;;;;;5116006;28;20088;-41
2023/09/05 00:42:39;;;;;;;0.10;0.10;;;;;;;;;;5116310;28;20074;-42
2023/09/05 00:45:05;;;;;;;0.10;0.10;;;;;;;;;;5115362;27;20459;-42
2023/09/05 00:47:32;;;;;;;0.10;0.10;;;;;;;;;;5111269;27;20070;-42
2023/09/05 00:49:58;;;;;;;0.10;0.10;;;;;;;;;;5100532;28;20448;-42
2023/09/05 00:52:25;;;;;;;0.10;0.10;;;;;;;;;;5115604;28;20051;-43
2023/09/05 00:54:51;;;;;;;0.10;0.10;;;;;;;;;;5115325;28;20637;-41
2023/09/05 00:57:17;;;;;;;0.20;0.20;;;;;;;;;;5115005;28;20102;-42
2023/09/05 00:59:43;;;;;;;0.20;0.20;;;;;;;;;;5115352;28;20043;-42
2023/09/05 01:02:09;;;;;;;0.10;0.10;;;;;;;;;;5115939;28;20092;-42
2023/09/05 01:04:35;;;;;;;0.10;0.10;;;;;;;;;;5114809;28;20051;-41
2023/09/05 01:07:02;;;;;;;0.17;0.17;;;;;;;;;;5116274;27;20117;-42
2023/09/05 01:09:47;;;;;;;0.10;0.10;;;;;;;;;;5098996;27;20044;-42
2023/09/05 01:12:13;;;;;;;0.10;0.10;;;;;;;;;;5100632;28;20526;-42
2023/09/05 01:14:38;;;;;;;0.20;0.20;;;;;;;;;;5115575;28;20150;-42
2023/09/05 01:17:05;;;;;;;0.10;0.10;;;;;;;;;;5115529;28;20043;-42
2023/09/05 01:19:34;;;;;;;0.10;0.10;;;;;;;;;;5097314;28;20569;-41
2023/09/05 01:22:06;;;;;;;0.20;0.20;;;;;;;;;;5115743;28;20075;-43
2023/09/05 01:24:35;;;;;;;0.10;0.10;;;;;;;;;;5115550;28;20476;-41
2023/09/05 01:27:01;;;;;;;0.10;0.10;;;;;;;;;;5115407;28;20102;-42
2023/09/05 01:29:34;;;;;;;0.10;0.10;;;;;;;;;;5096265;28;20050;-41
2023/09/05 01:32:01;;;;;;;0.10;0.10;;;;;;;;;;5115521;28;20050;-43
2023/09/05 01:34:27;;;;;;;0.10;0.10;;;;;;;;;;5115480;28;20277;-42
2023/09/05 01:36:52;;;;;;;0.10;0.10;;;;;;;;;;5114658;28;20047;-42
2023/09/05 01:39:18;;;;;;;0.10;0.10;;;;;;;;;;5110206;28;20066;-42
2023/09/05 01:41:44;;;;;;;0.17;0.17;;;;;;;;;;5114565;28;20521;-42
2023/09/05 01:44:09;;;;;;;0.20;0.20;;;;;;;;;;5115066;28;20126;-41
2023/09/05 01:46:35;;;;;;;0.10;0.10;;;;;;;;;;5121571;27;20065;-43
2023/09/05 01:49:00;;;;;;;0.20;0.20;;;;;;;;;;5107791;28;20134;-42
2023/09/05 01:51:26;;;;;;;0.10;0.10;;;;;;;;;;5111301;28;20051;-42
2023/09/05 01:53:51;;;;;;;0.10;0.10;;;;;;;;;;5115027;28;20066;-43
2023/09/05 01:56:17;;;;;;;0.10;0.10;;;;;;;;;;5116043;27;20443;-43
2023/09/05 01:58:42;;;;;;;0.10;0.10;;;;;;;;;;5118509;28;20365;-41
2023/09/05 02:01:08;;;;;;;0.20;0.20;;;;;;;;;;5119033;28;20051;-45
2023/09/05 02:03:34;;;;;;;0.10;0.10;;;;;;;;;;5118590;28;20047;-43
2023/09/05 02:05:59;;;;;;;0.10;0.10;;;;;;;;;;5118903;28;20043;-42
2023/09/05 02:08:25;;;;;;;0.10;0.10;;;;;;;;;;5117494;28;20058;-41
2023/09/05 02:10:50;;;;;;;0.20;0.20;;;;;;;;;;5118141;28;20058;-41
2023/09/05 02:13:17;;;;;;;0.10;0.10;;;;;;;;;;5118228;28;20043;-42
2023/09/05 02:15:43;;;;;;;0.10;0.10;;;;;;;;;;5118268;28;20136;-42
2023/09/05 02:18:10;;;;;;;0.20;0.20;;;;;;;;;;5117789;28;20055;-42
2023/09/05 02:20:37;;;;;;;0.10;0.10;;;;;;;;;;5118444;28;20047;-41
2023/09/05 02:23:03;;;;;;;0.10;0.10;;;;;;;;;;5118248;28;20478;-41
2023/09/05 02:25:28;;;;;;;0.10;0.10;;;;;;;;;;5117613;28;20065;-42
2023/09/05 02:27:54;;;;;;;0.10;0.10;;;;;;;;;;5117712;28;20192;-42
2023/09/05 02:30:19;;;;;;;0.10;0.10;;;;;;;;;;5117918;28;20400;-41
2023/09/05 02:32:49;;;;;;;0.10;0.10;;;;;;;;;;5118142;28;20051;-42
2023/09/05 02:35:16;;;;;;;0.10;0.10;;;;;;;;;;5117525;28;20043;-42
2023/09/05 02:37:41;;;;;;;0.20;0.20;;;;;;;;;;5116705;28;20039;-41
2023/09/05 02:40:07;;;;;;;0.20;0.20;;;;;;;;;;5116928;28;20453;-42
2023/09/05 02:42:33;;;;;;;0.10;0.10;;;;;;;;;;5117594;28;20051;-42
2023/09/05 02:44:58;;;;;;;0.20;0.20;;;;;;;;;;5116847;28;20086;-42
2023/09/05 02:47:24;;;;;;;0.10;0.10;;;;;;;;;;5123568;27;20499;-42
2023/09/05 02:49:49;;;;;;;0.20;0.20;;;;;;;;;;5117397;28;20379;-42
2023/09/05 02:52:15;;;;;;;0.20;0.20;;;;;;;;;;5117663;28;20035;-42
2023/09/05 02:54:41;;;;;;;0.20;0.20;;;;;;;;;;5116946;28;20050;-42
2023/09/05 02:57:06;;;;;;;0.10;0.10;;;;;;;;;;5117285;28;20142;-42
2023/09/05 02:59:32;;;;;;;0.10;0.10;;;;;;;;;;5117005;28;20047;-43
2023/09/05 03:01:57;;;;;;;0.10;0.10;;;;;;;;;;5116468;27;20134;-42
2023/09/05 03:04:23;;;;;;;0.10;0.10;;;;;;;;;;5096156;27;20051;-41
2023/09/05 03:06:49;;;;;;;0.10;0.10;;;;;;;;;;5097135;28;20492;-41
2023/09/05 03:09:14;;;;;;;0.10;0.10;;;;;;;;;;5116383;28;20053;-42
2023/09/05 03:11:40;;;;;;;0.10;0.10;;;;;;;;;;5117249;28;20043;-42
2023/09/05 03:14:05;;;;;;;0.10;0.10;;;;;;;;;;5117490;28;20062;-42
2023/09/05 03:16:31;;;;;;;0.20;0.20;;;;;;;;;;5117139;28;20047;-42
2023/09/05 03:18:59;;;;;;;0.10;0.10;;;;;;;;;;5117216;28;20055;-42
2023/09/05 03:21:26;;;;;;;0.10;0.10;;;;;;;;;;5117463;28;20085;-42
2023/09/05 03:23:52;;;;;;;0.15;0.15;;;;;;;;;;5117454;28;20039;-42
2023/09/05 03:26:18;;;;;;;0.10;0.10;;;;;;;;;;5117417;28;20047;-42
2023/09/05 03:28:45;;;;;;;0.10;0.10;;;;;;;;;;5116665;28;20448;-42
2023/09/05 03:31:10;;;;;;;0.10;0.10;;;;;;;;;;5117443;28;20051;-42
2023/09/05 03:33:36;;;;;;;0.10;0.10;;;;;;;;;;5116489;28;20099;-41
2023/09/05 03:36:03;;;;;;;0.10;0.10;;;;;;;;;;5098220;28;20399;-42
2023/09/05 03:38:29;;;;;;;0.10;0.10;;;;;;;;;;5105689;28;20420;-42
2023/09/05 03:40:55;;;;;;;0.10;0.10;;;;;;;;;;5114560;28;20718;-42
2023/09/05 03:43:21;;;;;;;0.20;0.20;;;;;;;;;;5116014;28;20356;-44
2023/09/05 03:45:48;;;;;;;0.10;0.10;;;;;;;;;;5116172;27;20043;-41
2023/09/05 03:48:14;;;;;;;0.10;0.10;;;;;;;;;;5116030;28;20466;-41
2023/09/05 03:50:39;;;;;;;0.10;0.10;;;;;;;;;;5116308;28;20511;-42
2023/09/05 03:53:05;;;;;;;0.10;0.10;;;;;;;;;;5116156;28;20047;-42
2023/09/05 03:55:34;;;;;;;0.10;0.10;;;;;;;;;;5116191;28;20502;-41
2023/09/05 03:58:00;;;;;;;0.10;0.10;;;;;;;;;;5115565;28;20071;-43
2023/09/05 04:00:25;;;;;;;0.10;0.10;;;;;;;;;;5116045;28;20070;-41
2023/09/05 04:02:51;;;;;;;0.20;0.20;;;;;;;;;;5116363;28;20377;-42
2023/09/05 04:05:17;;;;;;;0.10;0.10;;;;;;;;;;5115557;28;20411;-42
2023/09/05 04:07:42;;;;;;;0.10;0.10;;;;;;;;;;5115027;28;20055;-43
2023/09/05 04:10:08;;;;;;;0.20;0.20;;;;;;;;;;5115490;28;20078;-42
2023/09/05 04:12:34;;;;;;;0.20;0.20;;;;;;;;;;5115754;28;20329;-42
2023/09/05 04:14:59;;;;;;;0.15;0.15;;;;;;;;;;5115353;28;20082;-42
2023/09/05 04:17:25;;;;;;;0.20;0.20;;;;;;;;;;5115125;28;20258;-42
2023/09/05 04:19:54;;;;;;;0.10;0.10;;;;;;;;;;5114608;27;20484;-43
2023/09/05 04:22:21;;;;;;;0.10;0.10;;;;;;;;;;5115191;28;20096;-42
2023/09/05 04:24:50;;;;;;;0.10;0.10;;;;;;;;;;5114930;28;20119;-42
2023/09/05 04:27:15;;;;;;;0.20;0.20;;;;;;;;;;5114829;28;20145;-41
2023/09/05 04:29:41;;;;;;;0.10;0.10;;;;;;;;;;5115708;28;20055;-42
2023/09/05 04:32:07;;;;;;;0.10;0.10;;;;;;;;;;5115080;28;20204;-42
2023/09/05 04:34:34;;;;;;;0.17;0.17;;;;;;;;;;5114655;28;20039;-41
2023/09/05 04:37:00;;;;;;;0.10;0.10;;;;;;;;;;5115532;28;20047;-42
2023/09/05 04:39:26;;;;;;;0.10;0.10;;;;;;;;;;5096474;28;20043;-42
2023/09/05 04:41:51;;;;;;;0.10;0.10;;;;;;;;;;5108988;28;20047;-42
2023/09/05 04:44:17;;;;;;;0.10;0.10;;;;;;;;;;5113528;27;20049;-42
2023/09/05 04:46:45;;;;;;;0.20;0.20;;;;;;;;;;5116006;27;20047;-43
2023/09/05 04:49:11;;;;;;;;;;;;;;;;;;5116112;28;20038;-42
2023/09/05 04:51:36;;;;;;;0.10;0.10;;;;;;;;;;5116149;28;19933;-42
2023/09/05 04:54:02;;;;;;;0.20;0.20;;;;;;;;;;5115993;28;20054;-41
2023/09/05 04:56:27;;;;;;;0.20;0.20;;;;;;;;;;5116059;28;20043;-42
2023/09/05 04:58:53;;;;;;;0.10;0.10;;;;;;;;;;5114911;28;20235;-41
2023/09/05 05:01:18;;;;;;;0.10;0.10;;;;;;;;;;5115830;28;20096;-43
2023/09/05 05:03:44;;;;;;;0.10;0.10;;;;;;;;;;5114465;27;20406;-42
2023/09/05 05:06:10;;;;;;;0.20;0.20;;;;;;;;;;5113715;28;20459;-42
2023/09/05 05:08:35;;;;;;;0.10;0.10;;;;;;;;;;5104083;28;20047;-42
2023/09/05 05:11:02;;;;;;;0.10;0.10;;;;;;;;;;5101546;28;20116;-42
2023/09/05 05:13:28;;;;;;;0.20;0.20;;;;;;;;;;5115785;28;20416;-43
2023/09/05 05:15:53;;;;;;;0.20;0.20;;;;;;;;;;5115334;27;20402;-45
2023/09/05 05:18:19;;;;;;;0.10;0.10;;;;;;;;;;5104582;28;20096;-45
2023/09/05 05:20:45;;;;;;;0.10;0.10;;;;;;;;;;5095250;28;20246;-46
2023/09/05 05:23:11;;;;;;;0.20;0.20;;;;;;;;;;5101746;28;20058;-50
2023/09/05 05:25:37;;;;;;;0.20;0.20;;;;;;;;;;5098650;28;20447;-53
2023/09/05 05:28:02;;;;;;;0.17;0.17;;;;;;;;;;5106410;28;20081;-44
2023/09/05 05:30:28;;;;;;;0.10;0.10;;;;;;;;;;5103698;27;20135;-43
2023/09/05 05:32:53;;;;;;;0.10;0.10;;;;;;;;;;5102098;28;20118;-44
2023/09/05 05:35:19;;;;;;;0.13;0.13;;;;;;;;;;5098342;28;20462;-44
2023/09/05 05:37:44;;;;;;;0.10;0.10;;;;;;;;;;5109466;28;20047;-43
2023/09/05 05:40:11;;;;;;;0.15;0.15;;;;;;;;;;5112815;28;20047;-44
2023/09/05 05:42:37;;;;;;;0.20;0.20;;;;;;;;;;5109341;28;20043;-44
2023/09/05 05:45:03;;;;;;;0.15;0.15;;;;;;;;;;5117069;27;20588;-43
2023/09/05 05:47:31;;;;;;;0.10;0.10;;;;;;;;;;5104239;28;20626;-44
2023/09/05 05:49:57;;;;;;;0.10;0.10;;;;;;;;;;5105495;28;20058;-43
2023/09/05 05:52:22;;;;;;;0.10;0.10;;;;;;;;;;5102264;27;20039;-43
2023/09/05 05:54:48;;;;;;;0.10;0.10;;;;;;;;;;5097485;27;20154;-43
2023/09/05 05:57:14;;;;;;;0.10;0.10;;;;;;;;;;5088498;28;20052;-45
2023/09/05 05:59:40;;;;;;;0.15;0.15;;;;;;;;;;5100115;28;20055;-46
2023/09/05 06:02:05;;;;;;;0.10;0.10;;;;;;;;;;5098584;27;20054;-43
2023/09/05 06:04:31;;;;;;;0.10;0.10;;;;;;;;;;5100217;27;20484;-44
2023/09/05 06:06:56;;;;;;;0.10;0.10;;;;;;;;;;5098391;27;20652;-42
2023/09/05 06:09:22;;;;;;;0.10;0.10;;;;;;;;;;5109071;28;20410;-44
2023/09/05 06:11:47;;;;;;;0.10;0.10;;;;;;;;;;5104615;27;20039;-44
2023/09/05 06:14:14;;;;;;;0.10;0.10;;;;;;;;;;5105220;28;20048;-44
2023/09/05 06:16:40;;;;;;;0.10;0.10;;;;;;;;;;5109601;28;20047;-46
2023/09/05 06:19:08;;;;;;;0.10;0.10;;;;;;;;;;5103084;28;20052;-45
2023/09/05 06:21:34;;;;;;;0.10;0.10;;;;;;;;;;5105062;28;20075;-44
2023/09/05 06:23:59;;;;;;;0.10;0.10;;;;;;;;;;5102216;28;20078;-43
2023/09/05 06:26:25;;;;;;;0.20;0.20;;;;;;;;;;5100863;28;20427;-45
2023/09/05 06:28:51;;;;;;;0.10;0.10;;;;;;;;;;5106569;28;20120;-44
2023/09/05 06:31:17;;;;;;;0.10;0.10;;;;;;;;;;5106700;27;20471;-44
2023/09/05 06:33:42;;;;;;;0.10;0.10;;;;;;;;;;5103588;28;20043;-44
2023/09/05 06:36:09;;;;;;;0.10;0.10;;;;;;;;;;5095444;28;20065;-43
2023/09/05 06:38:36;;;;;;;0.20;0.20;;;;;;;;;;5102730;28;20551;-43
2023/09/05 06:41:09;;;;;;;0.10;0.10;;;;;;;;;;5096963;28;20780;-43
2023/09/05 06:43:35;;;;;;;0.10;0.10;;;;;;;;;;5101922;27;20048;-44
2023/09/05 06:46:02;;;;;;;0.10;0.10;;;;;;;;;;5077462;28;20097;-47
2023/09/05 06:48:29;;;;;;;0.10;0.10;;;;;;;;;;5102853;28;20252;-45
2023/09/05 06:50:54;;;;;;;0.10;0.10;;;;;;;;;;5098419;27;20063;-43
2023/09/05 06:53:20;;;;;;;0.10;0.10;;;;;;;;;;5093458;28;20047;-43
2023/09/05 06:55:46;;;;;;;0.20;0.20;;;;;;;;;;5091405;28;20047;-43
2023/09/05 06:58:11;;;;;;;0.10;0.10;;;;;;;;;;5089834;28;20151;-53
2023/09/05 07:00:37;;;;;;;0.10;0.10;;;;;;;;;;5087888;28;20860;-47
2023/09/05 07:03:02;;;;;;;0.17;0.17;;;;;;;;;;5086852;27;20121;-47
2023/09/05 07:05:28;;;;;;;0.10;0.10;;;;;;;;;;5084624;27;20047;-47
2023/09/05 07:07:54;;;;;;;0.20;0.20;;;;;;;;;;5078252;27;20047;-46
2023/09/05 07:10:19;;;;;;;0.10;0.10;;;;;;;;;;5032277;27;20780;-43
2023/09/05 07:12:45;;;;;;;0.20;0.20;;;;;;;;;;5029415;27;20086;-43
2023/09/05 07:15:11;;;;;;;0.10;0.10;;;;;;;;;;5023536;28;20742;-43
2023/09/05 07:17:36;;;;;;;0.10;0.10;;;;;;;;;;5024145;27;20056;-43
2023/09/05 07:20:02;;;;;;;0.10;0.10;;;;;;;;;;5024285;28;20147;-43
2023/09/05 07:22:27;;;;;;;0.10;0.10;;;;;;;;;;5035973;28;20051;-42
2023/09/05 07:24:53;;;;;;;0.10;0.10;;;;;;;;;;5026354;28;20054;-42
2023/09/05 07:27:20;;;;;;;0.10;0.10;;;;;;;;;;5073787;27;20062;-42
2023/09/05 07:29:45;;;;;;;0.10;0.10;;;;;;;;;;5101195;27;20549;-43
2023/09/05 07:32:11;;;;;;;0.10;0.10;;;;;;;;;;5109174;27;20055;-43
2023/09/05 07:34:37;;;;;;;0.10;0.10;;;;;;;;;;5098525;28;20036;-44
2023/09/05 07:37:03;;;;;;;0.10;0.10;;;;;;;;;;5097821;27;20398;-43
2023/09/05 07:39:28;;;;;;;0.10;0.10;;;;;;;;;;5095134;27;20397;-43
2023/09/05 07:41:54;;;;;;;0.10;0.10;;;;;;;;;;5102502;27;20131;-44
2023/09/05 07:44:19;;;;;;;0.10;0.10;;;;;;;;;;5103174;27;20491;-43
2023/09/05 07:46:45;;;;;;;0.10;0.10;;;;;;;;;;5105071;27;20480;-45
2023/09/05 07:49:10;;;;;;;0.10;0.10;;;;;;;;;;5103810;27;20664;-43
2023/09/05 07:51:36;;;;;;;0.10;0.10;;;;;;;;;;5101669;28;20059;-42
2023/09/05 07:54:03;;;;;;;0.10;0.10;;;;;;;;;;5095176;27;20220;-44
2023/09/05 07:56:29;;;;;;;0.10;0.10;;;;;;;;;;5105697;28;20374;-43
2023/09/05 07:58:54;;;;;;;0.10;0.10;;;;;;;;;;5097180;27;20079;-43
2023/09/05 08:01:20;;;;;;;0.10;0.10;;;;;;;;;;5096716;27;20048;-44
2023/09/05 08:03:47;;;;;;;0.10;0.10;;;;;;;;;;5087370;27;20859;-43
2023/09/05 08:06:13;;;;;;;0.10;0.10;;;;;;;;;;5083291;27;20043;-43
2023/09/05 08:08:39;;;;;;;0.10;0.10;;;;;;;;;;5081723;27;20103;-47
2023/09/05 08:11:04;;;;;;;0.10;0.10;;;;;;;;;;5086309;28;20647;-47
2023/09/05 08:13:30;;;;;;;0.10;0.10;;;;;;;;;;5086918;27;20110;-44
2023/09/05 08:15:55;;;;;;;0.10;0.10;;;;;;;;;;5098325;27;20767;-44
2023/09/05 08:18:21;;;;;;;0.10;0.10;;;;;;;;;;5093775;27;20051;-44
2023/09/05 08:20:47;;;;;;;0.10;0.10;;;;;;;;;;5088157;27;20039;-44
2023/09/05 08:23:12;;;;;;;0.25;0.25;;;;;;;;;;5097159;27;20100;-43
2023/09/05 08:25:38;;;;;;;0.13;0.13;;;;;;;;;;5095115;27;20178;-45
2023/09/05 08:28:04;;;;;;;0.10;0.10;;;;;;;;;;5096721;27;20047;-43
2023/09/05 08:30:30;;;;;;;0.13;0.13;;;;;;;;;;5092086;27;20048;-44
2023/09/05 08:32:57;;;;;;;0.10;0.10;;;;;;;;;;5088976;27;20423;-45
2023/09/05 08:35:23;;;;;;;0.20;0.20;;;;;;;;;;5065721;28;20154;-43
2023/09/05 08:37:48;;;;;;;0.20;0.20;;;;;;;;;;5064936;28;20125;-43
2023/09/05 08:40:15;;;;;;;0.20;0.20;;;;;;;;;;5073245;28;20414;-42
2023/09/05 08:42:41;;;;;;;0.10;0.10;;;;;;;;;;5089986;28;20204;-43
2023/09/05 08:45:11;;;;;;;0.10;0.10;;;;;;;;;;5098546;27;20050;-42
2023/09/05 08:47:37;;;;;;;0.10;0.10;;;;;;;;;;5095989;28;20140;-45
2023/09/05 08:50:04;;;;;;;0.10;0.10;;;;;;;;;;5096457;28;20043;-42
2023/09/05 08:52:32;;;;;;;0.10;0.10;;;;;;;;;;5099856;28;20524;-43
2023/09/05 08:54:58;;;;;;;0.10;0.10;;;;;;;;;;5098818;27;20528;-44
2023/09/05 08:57:24;;;;;;;0.10;0.10;;;;;;;;;;5098617;27;20094;-42
2023/09/05 08:59:49;;;;;;;0.10;0.10;;;;;;;;;;5098774;28;20116;-44
2023/09/05 09:02:17;;;;;;;0.10;0.10;;;;;;;;;;5101004;28;20394;-44
2023/09/05 09:04:58;;;;;;;0.10;0.10;;;;;;;;;;5102749;27;20047;-42
2023/09/05 09:07:27;;;;;;;0.47;0.20;;;;;;;;;;5099769;27;20231;-42
2023/09/05 09:09:53;;;;;;;0.10;0.10;;;;;;;;;;5093398;27;20047;-42
2023/09/05 09:12:34;;;;;;;0.10;0.10;;;;;;;;;;5102071;27;20113;-43
2023/09/05 09:15:15;;;;;;;0.10;0.10;;;;;;;;;;5101503;28;20139;-45
2023/09/05 09:17:41;;;;;;;0.10;0.10;;;;;;;;;;5095508;27;20054;-42
2023/09/05 09:20:12;;;;;;;0.10;0.10;;;;;;;;;;5105037;28;20039;-43
2023/09/05 09:22:38;;;;;;;0.10;0.10;;;;;;;;;;5100877;28;20047;-43
2023/09/05 09:25:12;;;;;;;0.17;0.17;;;;;;;;;;5098477;28;20116;-42
2023/09/05 09:27:39;;;;;;;0.10;0.10;;;;;;;;;;5095155;27;20047;-42
2023/09/05 09:30:06;;;;;;;0.30;0.30;;;;;;;;;;5090315;27;20103;-43
2023/09/05 09:32:32;;;;;;;0.50;0.50;;;;;;;;;;5095429;27;20054;-42
2023/09/05 09:34:58;;;;;;;0.20;0.20;;;;;;;;;;5072443;28;20043;-43
2023/09/05 09:37:24;;;;;;;0.10;0.10;;;;;;;;;;5091018;27;20110;-43
2023/09/05 09:39:56;;;;;;;0.10;0.10;;;;;;;;;;5085917;27;20479;-42
2023/09/05 09:42:22;;;;;;;0.10;0.10;;;;;;;;;;5085493;27;20108;-43
2023/09/05 09:44:48;;;;;;;0.10;0.10;;;;;;;;;;5086400;27;20043;-43
2023/09/05 09:47:15;;;;;;;0.10;0.10;;;;;;;;;;5082702;27;20516;-43
2023/09/05 09:49:42;;;;;;;0.10;0.10;;;;;;;;;;5087782;27;20079;-45
2023/09/05 09:52:11;;;;;;;0.10;0.10;;;;;;;;;;5084482;27;20043;-44
2023/09/05 09:54:36;;;;;;;;;;;;;;;;;;5086908;27;20067;-43
2023/09/05 09:57:04;;;;;;;0.10;0.10;;;;;;;;;;5095165;28;20309;-44
2023/09/05 09:59:33;;;;;;;0.10;0.10;;;;;;;;;;5100426;27;20062;-43
2023/09/05 10:01:58;;;;;;;0.10;0.10;;;;;;;;;;5091885;27;20067;-43
2023/09/05 10:04:24;;;;;;;0.10;0.10;;;;;;;;;;5095114;28;20518;-44
2023/09/05 10:06:51;;;;;;;0.17;0.17;;;;;;;;;;5096211;27;20426;-43
2023/09/05 10:09:17;;;;;;;0.15;0.15;;;;;;;;;;5094259;28;20448;-43
2023/09/05 10:11:43;;;;;;;0.10;0.10;;;;;;;;;;5106525;28;20047;-43
2023/09/05 10:14:10;;;;;;;0.20;0.20;;;;;;;;;;5099598;27;21202;-42
2023/09/05 10:16:36;;;;;;;0.10;0.10;;;;;;;;;;5098532;27;20039;-43
2023/09/05 10:19:03;;;;;;;0.10;0.10;;;;;;;;;;5102963;27;20057;-43
2023/09/05 10:21:29;;;;;;;0.10;0.10;;;;;;;;;;5107672;27;20176;-43
2023/09/05 10:23:55;;;;;;;0.13;0.13;;;;;;;;;;5107032;28;20257;-42
2023/09/05 10:26:21;;;;;;;0.20;0.20;;;;;;;;;;5102967;28;20077;-43
2023/09/05 10:28:46;;;;;;;0.10;0.10;;;;;;;;;;5099465;27;20399;-44
2023/09/05 10:31:13;;;;;;;0.10;0.10;;;;;;;;;;5097895;27;20050;-42
2023/09/05 10:33:40;;;;;;;0.10;0.10;;;;;;;;;;5088896;27;20142;-43
2023/09/05 10:36:26;;;;;;;0.10;0.10;;;;;;;;;;5070399;28;20078;-43
2023/09/05 10:38:56;;;;;;;0.10;0.10;;;;;;;;;;5070669;28;20484;-43
2023/09/05 10:41:37;;;;;;;0.10;0.10;;;;;;;;;;5068710;27;20052;-43
2023/09/05 10:44:02;;;;;;;0.10;0.10;;;;;;;;;;5088612;27;20285;-43
2023/09/05 10:46:28;;;;;;;0.10;0.10;;;;;;;;;;5070774;28;20611;-43
2023/09/05 10:49:08;;;;;;;0.10;0.10;;;;;;;;;;5090514;27;20051;-45
2023/09/05 10:51:34;;;;;;;0.20;0.20;;;;;;;;;;5092103;27;20384;-42
2023/09/05 10:54:19;;;;;;;0.10;0.10;;;;;;;;;;5086970;27;20051;-44
2023/09/05 10:56:45;;;;;;;0.10;0.10;;;;;;;;;;5082604;28;20260;-44
2023/09/05 10:59:23;;;;;;;0.10;0.10;;;;;;;;;;5092850;27;20055;-43
2023/09/05 11:01:52;;;;;;;0.10;0.10;;;;;;;;;;5100347;27;20050;-43
2023/09/05 11:04:19;;;;;;;0.20;0.20;;;;;;;;;;5098404;27;20380;-44
2023/09/05 11:06:52;;;;;;;0.10;0.10;;;;;;;;;;5098607;27;20857;-43
2023/09/05 11:09:18;;;;;;;0.10;0.10;;;;;;;;;;5098907;27;20039;-43
2023/09/05 11:11:45;;;;;;;0.20;0.20;;;;;;;;;;5099196;27;20090;-43
2023/09/05 11:14:10;;;;;;;0.10;0.10;;;;;;;;;;5100691;27;20123;-43
2023/09/05 11:16:52;;;;;;;0.10;0.10;;;;;;;;;;5101933;27;20039;-43
2023/09/05 11:19:39;;;;;;;0.10;0.10;;;;;;;;;;5103840;27;20043;-43
2023/09/05 11:22:10;;;;;;;0.10;0.10;;;;;;;;;;5091574;28;20047;-43
2023/09/05 11:24:37;;;;;;;0.10;0.10;;;;;;;;;;5104249;27;20047;-44
2023/09/05 11:27:03;;;;;;;0.10;0.10;;;;;;;;;;5103148;27;20555;-43
2023/09/05 11:29:29;;;;;;;0.10;0.10;;;;;;;;;;5095986;27;20039;-45
2023/09/05 11:31:56;;;;;;;0.10;0.10;;;;;;;;;;5096395;27;20104;-44
2023/09/05 11:34:22;;;;;;;0.10;0.10;;;;;;;;;;5097296;28;20043;-43
2023/09/05 11:36:47;;;;;;;0.10;0.10;;;;;;;;;;5097555;28;20089;-43
2023/09/05 11:39:16;;;;;;;0.10;0.10;;;;;;;;;;5094133;28;20069;-43
2023/09/05 11:41:42;;;;;;;0.10;0.10;;;;;;;;;;5093620;27;20074;-46
2023/09/05 11:44:08;;;;;;;0.10;0.10;;;;;;;;;;5087474;28;20050;-42
2023/09/05 11:46:35;;;;;;;0.10;0.10;;;;;;;;;;5107602;27;20178;-47
2023/09/05 11:49:01;;;;;;;0.10;0.10;;;;;;;;;;5097292;27;20569;-44
2023/09/05 11:51:30;;;;;;;0.10;0.10;;;;;;;;;;5093193;28;20043;-44
2023/09/05 11:53:55;;;;;;;0.10;0.10;;;;;;;;;;5081751;28;20054;-43
2023/09/05 11:56:21;;;;;;;0.10;0.10;;;;;;;;;;5104308;27;20454;-47
2023/09/05 11:58:46;;;;;;;0.10;0.10;;;;;;;;;;5101219;28;20062;-43
2023/09/05 12:01:12;;;;;;;0.10;0.10;;;;;;;;;;5102168;28;20507;-44
2023/09/05 12:03:38;;;;;;;0.10;0.10;;;;;;;;;;5100348;27;20528;-43
2023/09/05 12:06:04;;;;;;;0.10;0.10;;;;;;;;;;5099987;27;20583;-45
2023/09/05 12:08:30;;;;;;;0.10;0.10;;;;;;;;;;5100183;27;20036;-44
2023/09/05 12:11:03;;;;;;;0.10;0.10;;;;;;;;;;5099976;28;20103;-44
2023/09/05 12:13:37;;;;;;;0.10;0.10;;;;;;;;;;5104082;28;20071;-45
2023/09/05 12:16:03;;;;;;;0.10;0.10;;;;;;;;;;5099207;28;20536;-43
2023/09/05 12:18:29;;;;;;;0.10;0.10;;;;;;;;;;5107086;27;20043;-45
2023/09/05 12:20:55;;;;;;;0.10;0.10;;;;;;;;;;5102812;27;20592;-44
2023/09/05 12:23:23;;;;;;;0.10;0.10;;;;;;;;;;5094444;28;20247;-43
2023/09/05 12:25:48;;;;;;;0.10;0.10;;;;;;;;;;5092837;27;20059;-43
2023/09/05 12:28:22;;;;;;;0.10;0.10;;;;;;;;;;5099601;27;20295;-43
2023/09/05 12:30:48;;;;;;;0.10;0.10;;;;;;;;;;5102549;27;20054;-43
2023/09/05 12:33:15;;;;;;;0.10;0.10;;;;;;;;;;5097180;27;20051;-43
2023/09/05 12:35:40;;;;;;;0.10;0.10;;;;;;;;;;5104528;27;20056;-43
2023/09/05 12:38:07;;;;;;;0.10;0.10;;;;;;;;;;5098307;27;20099;-43
2023/09/05 12:40:33;;;;;;;0.10;0.10;;;;;;;;;;5103065;27;20047;-42
2023/09/05 12:42:58;;;;;;;0.57;0.20;;;;;;;;;;5107087;27;20047;-43
2023/09/05 12:45:24;;;;;;;0.10;0.10;;;;;;;;;;5109197;27;20197;-44
2023/09/05 12:47:51;;;;;;;0.10;0.10;;;;;;;;;;5100652;27;20062;-43
2023/09/05 12:50:17;;;;;;;0.10;0.10;;;;;;;;;;5098690;28;20239;-44
2023/09/05 12:52:43;;;;;;;0.10;0.10;;;;;;;;;;5104969;28;20851;-43
2023/09/05 12:55:10;;;;;;;0.10;0.10;;;;;;;;;;5104288;28;20546;-42
2023/09/05 12:57:37;;;;;;;0.10;0.10;;;;;;;;;;5098697;27;20441;-43
2023/09/05 13:00:03;;;;;;;0.10;0.10;;;;;;;;;;5100883;27;20484;-44
2023/09/05 13:02:28;;;;;;;0.10;0.10;;;;;;;;;;5080910;28;20071;-45
2023/09/05 13:04:54;;;;;;;0.20;0.20;;;;;;;;;;5101470;27;20054;-42
2023/09/05 13:07:19;;;;;;;0.20;0.20;;;;;;;;;;5109886;28;20604;-44
2023/09/05 13:09:45;;;;;;;0.10;0.10;;;;;;;;;;5106186;28;20043;-42
2023/09/05 13:12:10;;;;;;;0.10;0.10;;;;;;;;;;5105937;27;20374;-42
2023/09/05 13:14:36;;;;;;;0.10;0.10;;;;;;;;;;5109043;28;20055;-42
2023/09/05 13:17:02;;;;;;;0.10;0.10;;;;;;;;;;5108004;28;20063;-42
2023/09/05 13:19:27;;;;;;;0.10;0.10;;;;;;;;;;5104907;28;20054;-44
2023/09/05 13:21:53;;;;;;;0.10;0.10;;;;;;;;;;5109648;27;20047;-43
2023/09/05 13:24:18;;;;;;;0.10;0.10;;;;;;;;;;5104626;28;20047;-44
2023/09/05 13:26:44;;;;;;;0.10;0.10;;;;;;;;;;5101030;28;20047;-43
2023/09/05 13:29:09;;;;;;;0.10;0.10;;;;;;;;;;5095468;27;20298;-43
2023/09/05 13:31:35;;;;;;;0.10;0.10;;;;;;;;;;5101177;28;20134;-43
2023/09/05 13:34:01;;;;;;;0.10;0.10;;;;;;;;;;5096449;27;20132;-42
2023/09/05 13:36:26;;;;;;;0.10;0.10;;;;;;;;;;5099273;27;20092;-43
2023/09/05 13:38:52;;;;;;;0.10;0.10;;;;;;;;;;5103884;27;20086;-45
2023/09/05 13:41:19;;;;;;;0.30;0.20;;;;;;;;;;5099709;27;20381;-43
2023/09/05 13:43:45;;;;;;;0.10;0.10;;;;;;;;;;5105600;27;20063;-43
2023/09/05 13:46:10;;;;;;;0.10;0.10;;;;;;;;;;5105724;27;20601;-42
2023/09/05 13:48:36;;;;;;;0.20;0.20;;;;;;;;;;5104580;27;20074;-43
2023/09/05 13:51:02;;;;;;;0.10;0.10;;;;;;;;;;5106028;27;20459;-44
2023/09/05 13:53:27;;;;;;;0.10;0.10;;;;;;;;;;5092974;28;20711;-43
2023/09/05 13:55:53;;;;;;;0.10;0.10;;;;;;;;;;5106776;28;20094;-44
2023/09/05 13:58:19;;;;;;;0.10;0.10;;;;;;;;;;5097179;27;20047;-43
2023/09/05 14:00:44;;;;;;;0.10;0.10;;;;;;;;;;5111860;28;20204;-43
2023/09/05 14:03:10;;;;;;;0.10;0.10;;;;;;;;;;5103578;27;20508;-43
2023/09/05 14:05:37;;;;;;;0.10;0.10;;;;;;;;;;5112160;28;20043;-43
2023/09/05 14:08:03;;;;;;;0.10;0.10;;;;;;;;;;5108710;28;20058;-44
2023/09/05 14:10:29;;;;;;;0.10;0.10;;;;;;;;;;5114073;28;20103;-43
2023/09/05 14:12:54;;;;;;;0.10;0.10;;;;;;;;;;5089162;28;20074;-43
2023/09/05 14:15:21;;;;;;;0.10;0.10;;;;;;;;;;5105915;27;20048;-43
2023/09/05 14:17:46;;;;;;;0.10;0.10;;;;;;;;;;5102111;27;20533;-43
2023/09/05 14:20:12;;;;;;;0.10;0.10;;;;;;;;;;5108575;27;20054;-43
2023/09/05 14:22:38;;;;;;;0.10;0.10;;;;;;;;;;5102276;28;20126;-43
2023/09/05 14:25:03;;;;;;;0.10;0.10;;;;;;;;;;5110260;28;20052;-43
2023/09/05 14:27:29;;;;;;;0.10;0.10;;;;;;;;;;5113803;27;20047;-43
2023/09/05 14:29:55;;;;;;;0.10;0.10;;;;;;;;;;5109325;27;20265;-44
2023/09/05 14:32:20;;;;;;;0.10;0.10;;;;;;;;;;5088169;28;20047;-43
2023/09/05 14:34:50;;;;;;;0.10;0.10;;;;;;;;;;5103834;27;20040;-43
2023/09/05 14:37:15;;;;;;;0.10;0.10;;;;;;;;;;5105292;28;20062;-43
2023/09/05 14:39:41;;;;;;;0.10;0.10;;;;;;;;;;5101464;28;20058;-43